createdAt,value
2017-05-10T00:00:08.151Z,78.67
2017-05-10T00:01:21.056Z,79.44
2017-05-10T00:02:33.474Z,79.54
2017-05-10T00:03:46.607Z,79.6
2017-05-10T00:04:59.418Z,79.83
2017-05-10T00:06:12.255Z,79.54
2017-05-10T00:07:25.046Z,79.93
2017-05-10T00:08:37.844Z,79.35
2017-05-10T00:09:50.664Z,79.93
2017-05-10T00:11:03.465Z,79.64
2017-05-10T00:12:16.266Z,79.83
2017-05-10T00:13:29.063Z,79.64
2017-05-10T00:14:41.862Z,79.89
2017-05-10T00:15:54.178Z,80.02
2017-05-10T00:17:06.971Z,79.64
2017-05-10T00:18:19.289Z,80.22
2017-05-10T00:19:32.090Z,80.12
2017-05-10T00:20:45.234Z,80.31
2017-05-10T00:21:58.032Z,80.27
2017-05-10T00:23:10.343Z,80.08
2017-05-10T00:24:22.663Z,80.18
2017-05-10T00:25:35.511Z,80.76
2017-05-10T00:26:48.308Z,80.08
2017-05-10T00:28:01.108Z,80.46
2017-05-10T00:29:13.905Z,80.27
2017-05-10T00:30:26.710Z,79.41
2017-05-10T00:31:39.035Z,80.08
2017-05-10T00:32:51.351Z,80.08
2017-05-10T00:34:04.173Z,79.79
2017-05-10T00:35:16.972Z,80.18
2017-05-10T00:36:29.817Z,81.14
2017-05-10T00:37:42.611Z,81.24
2017-05-10T00:38:55.412Z,81.72
2017-05-10T00:40:08.212Z,82.29
2017-05-10T00:41:21.008Z,81.91
2017-05-10T00:42:34.050Z,81.91
2017-05-10T00:43:46.855Z,82.1
2017-05-10T00:44:59.654Z,82.59
2017-05-10T00:46:11.975Z,82.78
2017-05-10T00:47:24.827Z,82.01
2017-05-10T00:48:37.625Z,81.91
2017-05-10T00:49:50.413Z,82.78
2017-05-10T00:51:03.197Z,82.59
2017-05-10T00:52:16.055Z,82.78
2017-05-10T00:53:28.846Z,82.68
2017-05-10T00:54:41.630Z,82.2
2017-05-10T00:55:53.934Z,82.1
2017-05-10T00:57:06.718Z,82.06
2017-05-10T00:58:19.507Z,82.16
2017-05-10T00:59:31.805Z,81.91
2017-05-10T01:00:44.586Z,82.78
2017-05-10T01:01:56.888Z,82.78
2017-05-10T01:03:09.678Z,82.97
2017-05-10T01:04:22.462Z,82.68
2017-05-10T01:05:35.249Z,82.97
2017-05-10T01:06:48.070Z,83.26
2017-05-10T01:08:00.860Z,83.61
2017-05-10T01:09:13.648Z,83.8
2017-05-10T01:10:26.434Z,84.09
2017-05-10T01:11:39.221Z,84.38
2017-05-10T01:12:52.018Z,84.28
2017-05-10T01:14:04.809Z,84.38
2017-05-10T01:15:17.795Z,84.18
2017-05-10T01:16:30.102Z,84.76
2017-05-10T01:17:42.400Z,85.82
2017-05-10T01:18:54.701Z,85.72
2017-05-10T01:20:07.785Z,86.4
2017-05-10T01:21:20.097Z,86.4
2017-05-10T01:22:32.895Z,86.4
2017-05-10T01:23:45.681Z,86.59
2017-05-10T01:24:58.471Z,86.01
2017-05-10T01:26:11.261Z,86.59
2017-05-10T01:27:24.050Z,86.78
2017-05-10T01:28:36.839Z,86.21
2017-05-10T01:29:49.621Z,86.88
2017-05-10T01:31:02.603Z,86.78
2017-05-10T01:32:14.904Z,86.59
2017-05-10T01:33:27.698Z,86.69
2017-05-10T01:34:40.492Z,86.59
2017-05-10T01:35:53.275Z,86.78
2017-05-10T01:37:05.626Z,86.98
2017-05-10T01:38:18.414Z,87.46
2017-05-10T01:39:31.199Z,87.26
2017-05-10T01:40:43.990Z,88.13
2017-05-10T01:42:10.849Z,87.94
2017-05-10T01:43:23.644Z,89
2017-05-10T01:44:36.432Z,88.61
2017-05-10T01:45:49.222Z,89.29
2017-05-10T01:47:02.014Z,89
2017-05-10T01:48:14.358Z,89.19
2017-05-10T01:49:27.158Z,89.19
2017-05-10T01:50:39.944Z,89.05
2017-05-10T01:51:52.250Z,89.86
2017-05-10T01:53:05.232Z,90.34
2017-05-10T01:54:17.056Z,90.3
2017-05-10T01:55:29.360Z,90.2
2017-05-10T01:56:42.144Z,90.88
2017-05-10T01:57:54.930Z,90.4
2017-05-10T01:59:07.721Z,90.97
2017-05-10T02:00:20.506Z,90.88
2017-05-10T02:01:33.291Z,90.97
2017-05-10T02:02:45.596Z,91.36
2017-05-10T02:03:58.385Z,91.55
2017-05-10T02:05:10.688Z,91.94
2017-05-10T02:06:23.472Z,91.65
2017-05-10T02:07:36.262Z,92.32
2017-05-10T02:08:48.084Z,92.13
2017-05-10T02:10:00.867Z,92.13
2017-05-10T02:11:13.654Z,92.61
2017-05-10T02:12:26.444Z,92.61
2017-05-10T02:13:38.753Z,92.32
2017-05-10T02:14:51.060Z,92.22
2017-05-10T02:16:03.367Z,92.32
2017-05-10T02:17:16.152Z,92.03
2017-05-10T02:18:28.941Z,92.03
2017-05-10T02:19:42.093Z,92.03
2017-05-10T02:20:54.885Z,92.32
2017-05-10T02:22:06.711Z,92.32
2017-05-10T02:23:19.509Z,92.42
2017-05-10T02:24:31.823Z,92.13
2017-05-10T02:25:44.330Z,92.22
2017-05-10T02:26:56.644Z,92.47
2017-05-10T02:28:09.437Z,92.57
2017-05-10T02:29:22.235Z,92.47
2017-05-10T02:30:35.040Z,92.95
2017-05-10T02:31:47.831Z,93.43
2017-05-10T02:33:00.626Z,93.15
2017-05-10T02:34:13.423Z,93.53
2017-05-10T02:35:26.222Z,93.43
2017-05-10T02:36:39.014Z,93.15
2017-05-10T02:37:51.809Z,93.15
2017-05-10T02:39:04.604Z,93.43
2017-05-10T02:40:16.433Z,93.43
2017-05-10T02:41:29.224Z,93.43
2017-05-10T02:42:42.016Z,93.53
2017-05-10T02:43:54.810Z,94.3
2017-05-10T02:45:07.608Z,93.15
2017-05-10T02:46:20.400Z,93.24
2017-05-10T02:47:32.426Z,92.85
2017-05-10T02:48:45.225Z,92.85
2017-05-10T02:49:58.024Z,93.15
2017-05-10T02:51:10.822Z,92.95
2017-05-10T02:52:23.815Z,92.95
2017-05-10T02:53:36.609Z,92.85
2017-05-10T02:54:49.404Z,92.85
2017-05-10T02:56:02.195Z,92.66
2017-05-10T02:57:14.497Z,92.38
2017-05-10T02:58:27.292Z,92.28
2017-05-10T02:59:40.092Z,92.18
2017-05-10T03:00:52.888Z,91.6
2017-05-10T03:02:05.188Z,91.99
2017-05-10T03:03:17.013Z,91.7
2017-05-10T03:04:29.812Z,91.89
2017-05-10T03:05:42.128Z,91.6
2017-05-10T03:06:54.922Z,91.41
2017-05-10T03:08:07.706Z,91.03
2017-05-10T03:09:20.213Z,91.03
2017-05-10T03:10:33.027Z,90.64
2017-05-10T03:11:45.813Z,90.45
2017-05-10T03:12:58.601Z,90.69
2017-05-10T03:14:11.386Z,90.69
2017-05-10T03:15:24.185Z,90.35
2017-05-10T03:16:36.983Z,90.69
2017-05-10T03:17:49.775Z,91.17
2017-05-10T03:19:02.568Z,90.79
2017-05-10T03:20:14.879Z,91.08
2017-05-10T03:21:27.672Z,91.66
2017-05-10T03:22:40.464Z,91.17
2017-05-10T03:23:53.248Z,90.89
2017-05-10T03:25:06.239Z,90.89
2017-05-10T03:26:19.033Z,90.79
2017-05-10T03:27:31.814Z,90.89
2017-05-10T03:28:44.608Z,90.89
2017-05-10T03:29:57.395Z,90.98
2017-05-10T03:31:10.010Z,90.98
2017-05-10T03:32:22.318Z,91.27
2017-05-10T03:33:35.111Z,90.79
2017-05-10T03:34:47.431Z,91.27
2017-05-10T03:35:59.948Z,90.59
2017-05-10T03:37:12.748Z,90.59
2017-05-10T03:38:25.537Z,90.79
2017-05-10T03:39:38.338Z,90.21
2017-05-10T03:40:51.135Z,90.31
2017-05-10T03:42:04.229Z,90.45
2017-05-10T03:43:16.532Z,90.59
2017-05-10T03:44:29.315Z,90.73
2017-05-10T03:45:41.627Z,90.73
2017-05-10T03:46:54.669Z,90.35
2017-05-10T03:48:07.478Z,91.31
2017-05-10T03:49:19.778Z,91.08
2017-05-10T03:50:32.563Z,92.13
2017-05-10T03:51:45.352Z,92.43
2017-05-10T03:52:58.437Z,92.04
2017-05-10T03:54:11.234Z,92.23
2017-05-10T03:55:23.538Z,92.23
2017-05-10T03:56:36.331Z,92.13
2017-05-10T03:57:49.109Z,92.52
2017-05-10T03:59:01.908Z,92.13
2017-05-10T04:00:14.689Z,93
2017-05-10T04:01:27.469Z,93
2017-05-10T04:02:40.254Z,92.61
2017-05-10T04:03:52.861Z,92.43
2017-05-10T04:05:05.648Z,94.06
2017-05-10T04:06:18.440Z,93.96
2017-05-10T04:07:31.222Z,93.68
2017-05-10T04:08:44.011Z,94.25
2017-05-10T04:09:56.801Z,94.35
2017-05-10T04:11:09.589Z,94.25
2017-05-10T04:12:21.888Z,94.45
2017-05-10T04:13:34.674Z,94.45
2017-05-10T04:14:47.660Z,94.25
2017-05-10T04:16:00.443Z,94.45
2017-05-10T04:17:13.227Z,94.64
2017-05-10T04:18:26.014Z,95.02
2017-05-10T04:19:38.855Z,94.64
2017-05-10T04:20:51.205Z,94.83
2017-05-10T04:22:03.989Z,94.78
2017-05-10T04:23:16.296Z,94.35
2017-05-10T04:24:29.077Z,94.4
2017-05-10T04:25:42.060Z,94.88
2017-05-10T04:26:54.841Z,94.59
2017-05-10T04:28:07.158Z,94.68
2017-05-10T04:29:19.941Z,94.88
2017-05-10T04:30:32.443Z,95.17
2017-05-10T04:31:45.228Z,94.68
2017-05-10T04:32:58.013Z,95.07
2017-05-10T04:34:10.802Z,95.36
2017-05-10T04:35:23.589Z,95.4
2017-05-10T04:36:35.896Z,95.45
2017-05-10T04:37:48.689Z,95.65
2017-05-10T04:39:01.490Z,95.75
2017-05-10T04:40:14.279Z,95.5
2017-05-10T04:41:27.065Z,95.4
2017-05-10T04:42:39.865Z,95.5
2017-05-10T04:43:52.177Z,95.4
2017-05-10T04:45:04.972Z,95.21
2017-05-10T04:46:17.302Z,95.6
2017-05-10T04:47:30.108Z,95.07
2017-05-10T04:48:41.939Z,94.93
2017-05-10T04:49:54.258Z,95.6
2017-05-10T04:51:06.563Z,95.21
2017-05-10T04:52:19.653Z,95.4
2017-05-10T04:53:32.452Z,95.6
2017-05-10T04:54:45.255Z,95.6
2017-05-10T04:55:57.565Z,95.12
2017-05-10T04:57:09.869Z,95.6
2017-05-10T04:58:22.183Z,95.7
2017-05-10T04:59:34.981Z,95.5
2017-05-10T05:00:47.769Z,95.5
2017-05-10T05:02:00.079Z,95.65
2017-05-10T05:03:13.169Z,95.45
2017-05-10T05:04:25.965Z,95.7
2017-05-10T05:05:38.764Z,95.5
2017-05-10T05:06:51.066Z,95.5
2017-05-10T05:08:03.858Z,95.31
2017-05-10T05:09:16.171Z,95.12
2017-05-10T05:10:28.967Z,95.31
2017-05-10T05:11:41.758Z,95.79
2017-05-10T05:12:54.552Z,95.6
2017-05-10T05:14:07.343Z,95.4
2017-05-10T05:15:19.654Z,95.75
2017-05-10T05:16:32.447Z,95.65
2017-05-10T05:17:45.240Z,95.79
2017-05-10T05:18:58.040Z,95.5
2017-05-10T05:20:10.560Z,95.4
2017-05-10T05:21:23.360Z,95.4
2017-05-10T05:22:36.148Z,95.89
2017-05-10T05:23:48.945Z,96.08
2017-05-10T05:25:02.051Z,95.7
2017-05-10T05:26:14.853Z,96.56
2017-05-10T05:27:27.642Z,97.14
2017-05-10T05:28:40.435Z,97.24
2017-05-10T05:29:53.235Z,97.33
2017-05-10T05:31:06.026Z,97.24
2017-05-10T05:32:18.815Z,97.42
2017-05-10T05:33:31.608Z,97.04
2017-05-10T05:34:44.403Z,97.19
2017-05-10T05:35:57.204Z,96.66
2017-05-10T05:37:09.511Z,96.85
2017-05-10T05:38:21.814Z,97.28
2017-05-10T05:39:34.613Z,97.24
2017-05-10T05:40:47.413Z,97.71
2017-05-10T05:42:00.411Z,97.62
2017-05-10T05:43:13.199Z,98.39
2017-05-10T05:44:25.512Z,98.48
2017-05-10T05:45:38.385Z,98.58
2017-05-10T05:46:51.172Z,98.39
2017-05-10T05:48:03.956Z,98.68
2017-05-10T05:49:16.734Z,98.77
2017-05-10T05:50:29.526Z,98.39
2017-05-10T05:51:42.318Z,98.77
2017-05-10T05:52:54.920Z,98.68
2017-05-10T05:54:07.710Z,99.06
2017-05-10T05:55:20.019Z,98.68
2017-05-10T05:56:32.821Z,99.25
2017-05-10T05:57:45.808Z,99.73
2017-05-10T05:58:58.595Z,99.73
2017-05-10T06:00:11.389Z,99.68
2017-05-10T06:01:23.698Z,99.78
2017-05-10T06:02:36.480Z,99.97
2017-05-10T06:03:48.981Z,99.68
2017-05-10T06:05:01.762Z,99.58
2017-05-10T06:06:14.067Z,99.99
2017-05-10T06:07:26.849Z,99.73
2017-05-10T06:08:39.930Z,99.99
2017-05-10T06:09:52.231Z,99.99
2017-05-10T06:11:05.012Z,99.99
2017-05-10T06:12:17.315Z,99.99
2017-05-10T06:13:29.618Z,99.99
2017-05-10T06:14:42.396Z,99.99
2017-05-10T06:15:54.696Z,99.99
2017-05-10T06:17:07.476Z,99.99
2017-05-10T06:18:20.258Z,99.99
2017-05-10T06:19:33.042Z,99.99
2017-05-10T06:20:45.828Z,99.92
2017-05-10T06:21:58.618Z,99.99
2017-05-10T06:23:10.442Z,99.63
2017-05-10T06:24:22.256Z,99.63
2017-05-10T06:25:35.246Z,99.44
2017-05-10T06:26:48.031Z,99.83
2017-05-10T06:28:00.820Z,99.99
2017-05-10T06:29:13.614Z,99.99
2017-05-10T06:30:26.597Z,99.99
2017-05-10T06:31:38.413Z,99.99
2017-05-10T06:32:51.195Z,99.99
2017-05-10T06:34:03.983Z,99.99
2017-05-10T06:35:15.806Z,99.99
2017-05-10T06:36:28.886Z,99.99
2017-05-10T06:37:41.666Z,99.99
2017-05-10T06:38:54.450Z,99.99
2017-05-10T06:40:07.233Z,99.99
2017-05-10T06:41:19.737Z,99.99
2017-05-10T06:42:32.522Z,99.99
2017-05-10T06:43:45.316Z,99.99
2017-05-10T06:44:57.616Z,99.99
2017-05-10T06:46:09.914Z,99.99
2017-05-10T06:47:22.212Z,99.99
2017-05-10T06:48:34.997Z,99.99
2017-05-10T06:49:47.784Z,99.99
2017-05-10T06:51:00.084Z,99.99
2017-05-10T06:52:12.865Z,99.99
2017-05-10T06:53:25.164Z,99.99
2017-05-10T06:54:37.464Z,99.99
2017-05-10T06:55:50.246Z,99.99
2017-05-10T06:57:02.544Z,99.99
2017-05-10T06:58:15.630Z,99.99
2017-05-10T06:59:28.416Z,99.99
2017-05-10T07:00:41.201Z,99.99
2017-05-10T07:01:53.982Z,99.99
2017-05-10T07:03:06.765Z,99.99
2017-05-10T07:04:19.063Z,99.99
2017-05-10T07:05:31.854Z,99.99
2017-05-10T07:06:44.636Z,99.99
2017-05-10T07:07:57.421Z,99.99
2017-05-10T07:09:10.407Z,99.99
2017-05-10T07:10:23.190Z,99.63
2017-05-10T07:11:35.973Z,99.73
2017-05-10T07:12:48.771Z,99.63
2017-05-10T07:14:01.373Z,99.63
2017-05-10T07:15:14.171Z,99.15
2017-05-10T07:16:26.959Z,99.25
2017-05-10T07:17:39.740Z,98.68
2017-05-10T07:18:51.079Z,98.96
2017-05-10T07:20:02.898Z,98.68
2017-05-10T07:21:14.722Z,98.86
2017-05-10T07:22:27.504Z,99.44
2017-05-10T07:23:40.288Z,99.25
2017-05-10T07:24:53.375Z,98.96
2017-05-10T07:26:06.159Z,98.96
2017-05-10T07:27:18.981Z,98.77
2017-05-10T07:28:31.282Z,99.06
2017-05-10T07:29:43.585Z,98.86
2017-05-10T07:30:56.390Z,99.63
2017-05-10T07:32:08.692Z,98.96
2017-05-10T07:33:21.477Z,99.83
2017-05-10T07:34:34.255Z,99.83
2017-05-10T07:35:47.036Z,99.73
2017-05-10T07:36:59.335Z,99.83
2017-05-10T07:38:10.673Z,99.35
2017-05-10T07:39:23.487Z,99.63
2017-05-10T07:40:36.263Z,99.92
2017-05-10T07:41:49.388Z,99.99
2017-05-10T07:43:02.170Z,99.99
2017-05-10T07:44:14.468Z,99.99
2017-05-10T07:45:27.251Z,99.99
2017-05-10T07:46:39.554Z,99.99
2017-05-10T07:47:51.854Z,99.99
2017-05-10T07:49:04.634Z,99.99
2017-05-10T07:50:16.939Z,99.99
2017-05-10T07:51:29.732Z,99.99
2017-05-10T07:52:42.813Z,99.99
2017-05-10T07:53:55.122Z,99.99
2017-05-10T07:55:07.907Z,99.99
2017-05-10T07:56:20.691Z,99.99
2017-05-10T07:57:33.672Z,99.99
2017-05-10T07:58:46.451Z,99.99
2017-05-10T07:59:59.244Z,99.99
2017-05-10T08:01:10.587Z,99.99
2017-05-10T08:02:22.890Z,99.83
2017-05-10T08:03:35.879Z,99.99
2017-05-10T08:04:48.664Z,99.99
2017-05-10T08:06:01.448Z,99.99
2017-05-10T08:07:14.226Z,99.73
2017-05-10T08:08:27.006Z,99.99
2017-05-10T08:09:39.786Z,99.92
2017-05-10T08:10:52.085Z,99.83
2017-05-10T08:12:04.867Z,99.63
2017-05-10T08:13:17.168Z,99.54
2017-05-10T08:14:30.150Z,99.54
2017-05-10T08:15:42.928Z,99.63
2017-05-10T08:16:55.708Z,99.83
2017-05-10T08:18:07.527Z,99.44
2017-05-10T08:19:20.306Z,99.73
2017-05-10T08:20:33.087Z,99.63
2017-05-10T08:21:45.866Z,99.99
2017-05-10T08:22:58.657Z,99.44
2017-05-10T08:24:10.476Z,99.44
2017-05-10T08:25:22.778Z,99.99
2017-05-10T08:26:35.079Z,99.99
2017-05-10T08:27:47.380Z,99.63
2017-05-10T08:28:59.676Z,99.73
2017-05-10T08:30:12.172Z,99.99
2017-05-10T08:31:24.951Z,99.99
2017-05-10T08:32:37.249Z,99.63
2017-05-10T08:33:49.559Z,99.63
2017-05-10T08:35:02.347Z,99.92
2017-05-10T08:36:14.463Z,99.99
2017-05-10T08:37:26.765Z,99.73
2017-05-10T08:38:39.070Z,99.83
2017-05-10T08:39:51.376Z,99.83
2017-05-10T08:41:04.169Z,99.35
2017-05-10T08:42:16.989Z,99.44
2017-05-10T08:43:29.779Z,99.68
2017-05-10T08:44:42.569Z,99.54
2017-05-10T08:45:54.871Z,99.63
2017-05-10T08:47:07.478Z,99.68
2017-05-10T08:48:19.778Z,99.83
2017-05-10T08:49:32.082Z,98.96
2017-05-10T08:50:44.871Z,98.86
2017-05-10T08:51:57.966Z,99.01
2017-05-10T08:53:10.272Z,99.63
2017-05-10T08:54:22.573Z,99.44
2017-05-10T08:55:34.877Z,99.63
2017-05-10T08:56:47.662Z,99.44
2017-05-10T08:58:00.167Z,99.83
2017-05-10T08:59:12.946Z,99.73
2017-05-10T09:00:25.257Z,99.44
2017-05-10T09:01:38.036Z,99.73
2017-05-10T09:02:50.823Z,99.99
2017-05-10T09:04:03.646Z,99.63
2017-05-10T09:05:15.942Z,99.99
2017-05-10T09:06:28.726Z,99.99
2017-05-10T09:07:41.514Z,99.99
2017-05-10T09:08:54.295Z,99.35
2017-05-10T09:10:06.594Z,99.92
2017-05-10T09:11:18.413Z,99.63
2017-05-10T09:12:31.196Z,99.99
2017-05-10T09:13:44.188Z,99.99
2017-05-10T09:14:56.486Z,99.99
2017-05-10T09:16:09.267Z,99.99
2017-05-10T09:17:22.052Z,99.83
2017-05-10T09:18:34.834Z,99.83
2017-05-10T09:19:47.612Z,99.99
2017-05-10T09:21:00.398Z,99.99
2017-05-10T09:22:12.704Z,99.99
2017-05-10T09:23:25.484Z,99.99
2017-05-10T09:24:38.464Z,99.83
2017-05-10T09:25:50.763Z,99.83
2017-05-10T09:27:03.541Z,99.92
2017-05-10T09:28:15.840Z,99.99
2017-05-10T09:29:28.616Z,99.99
2017-05-10T09:30:41.217Z,99.92
2017-05-10T09:31:53.518Z,99.83
2017-05-10T09:33:06.296Z,99.92
2017-05-10T09:34:19.078Z,99.44
2017-05-10T09:35:32.104Z,99.83
2017-05-10T09:36:44.883Z,99.63
2017-05-10T09:37:57.662Z,99.99
2017-05-10T09:39:10.470Z,99.99
2017-05-10T09:40:23.251Z,99.54
2017-05-10T09:41:36.248Z,99.35
2017-05-10T09:42:48.554Z,99.99
2017-05-10T09:44:01.330Z,99.92
2017-05-10T09:45:14.118Z,99.99
2017-05-10T09:46:25.937Z,99.63
2017-05-10T09:47:38.716Z,99.73
2017-05-10T09:48:51.014Z,99.99
2017-05-10T09:50:03.795Z,99.99
2017-05-10T09:51:16.091Z,99.73
2017-05-10T09:52:29.076Z,99.73
2017-05-10T09:53:41.861Z,99.99
2017-05-10T09:54:54.651Z,99.73
2017-05-10T09:56:06.947Z,99.44
2017-05-10T09:57:19.731Z,99.44
2017-05-10T09:58:32.027Z,99.25
2017-05-10T09:59:44.328Z,99.25
2017-05-10T10:00:56.631Z,99.54
2017-05-10T10:02:09.419Z,99.54
2017-05-10T10:03:22.396Z,99.83
2017-05-10T10:04:34.697Z,99.44
2017-05-10T10:05:47.476Z,99.83
2017-05-10T10:07:00.262Z,99.73
2017-05-10T10:08:12.084Z,99.73
2017-05-10T10:09:24.868Z,99.92
2017-05-10T10:10:37.648Z,99.63
2017-05-10T10:11:49.947Z,99.83
2017-05-10T10:13:02.245Z,99.73
2017-05-10T10:14:14.747Z,99.44
2017-05-10T10:15:27.545Z,99.44
2017-05-10T10:16:40.330Z,99.83
2017-05-10T10:17:52.630Z,99.25
2017-05-10T10:19:04.939Z,98.96
2017-05-10T10:20:17.234Z,99.15
2017-05-10T10:21:30.014Z,99.54
2017-05-10T10:22:42.799Z,99.35
2017-05-10T10:23:55.582Z,98.86
2017-05-10T10:25:08.089Z,99.06
2017-05-10T10:26:20.387Z,99.06
2017-05-10T10:27:33.170Z,99.15
2017-05-10T10:28:44.992Z,99.44
2017-05-10T10:29:57.974Z,99.15
2017-05-10T10:31:10.270Z,99.63
2017-05-10T10:32:22.577Z,99.15
2017-05-10T10:33:35.359Z,98.82
2017-05-10T10:34:48.146Z,98.39
2017-05-10T10:36:00.927Z,98.86
2017-05-10T10:37:12.273Z,99.06
2017-05-10T10:38:24.099Z,98.48
2017-05-10T10:39:36.879Z,98.72
2017-05-10T10:40:49.002Z,98.82
2017-05-10T10:42:01.795Z,98.34
2017-05-10T10:43:14.101Z,98.72
2017-05-10T10:44:25.963Z,98.39
2017-05-10T10:45:38.743Z,98
2017-05-10T10:46:51.052Z,98.19
2017-05-10T10:48:03.841Z,98.86
2017-05-10T10:49:16.620Z,98.72
2017-05-10T10:50:29.441Z,98.82
2017-05-10T10:51:42.425Z,98.72
2017-05-10T10:52:54.251Z,98.24
2017-05-10T10:54:07.041Z,98.44
2017-05-10T10:55:19.346Z,98.14
2017-05-10T10:56:32.142Z,98.34
2017-05-10T10:57:44.935Z,98.05
2017-05-10T10:58:57.247Z,98.53
2017-05-10T11:00:09.551Z,98.14
2017-05-10T11:01:22.337Z,98.14
2017-05-10T11:02:34.982Z,98.14
2017-05-10T11:03:47.774Z,97.57
2017-05-10T11:05:00.554Z,97.96
2017-05-10T11:06:13.334Z,97.57
2017-05-10T11:07:26.131Z,97.28
2017-05-10T11:08:38.640Z,96.99
2017-05-10T11:09:51.421Z,97.09
2017-05-10T11:11:03.728Z,97.09
2017-05-10T11:12:16.039Z,96.99
2017-05-10T11:13:28.882Z,97.76
2017-05-10T11:14:41.200Z,97.76
2017-05-10T11:15:54.005Z,97.57
2017-05-10T11:17:06.797Z,97.57
2017-05-10T11:18:19.108Z,97.47
2017-05-10T11:19:31.892Z,97.57
2017-05-10T11:20:44.673Z,97.47
2017-05-10T11:21:57.456Z,97.67
2017-05-10T11:23:10.237Z,97.86
2017-05-10T11:24:22.255Z,97.38
2017-05-10T11:25:34.555Z,96.75
2017-05-10T11:26:47.335Z,97.57
2017-05-10T11:28:00.125Z,96.94
2017-05-10T11:29:12.905Z,96.8
2017-05-10T11:30:25.717Z,97.24
2017-05-10T11:31:38.497Z,96.8
2017-05-10T11:32:51.286Z,96.56
2017-05-10T11:34:04.068Z,97.24
2017-05-10T11:35:16.855Z,96.94
2017-05-10T11:36:29.152Z,96.85
2017-05-10T11:37:41.932Z,96.47
2017-05-10T11:38:54.229Z,96.47
2017-05-10T11:40:07.009Z,95.89
2017-05-10T11:41:20.002Z,96.47
2017-05-10T11:42:31.821Z,96.17
2017-05-10T11:43:44.610Z,95.5
2017-05-10T11:44:57.397Z,95.5
2017-05-10T11:46:09.418Z,95.31
2017-05-10T11:47:22.202Z,95.65
2017-05-10T11:48:34.504Z,95.07
2017-05-10T11:49:47.286Z,95.07
2017-05-10T11:51:00.073Z,94.59
2017-05-10T11:52:13.057Z,93.24
2017-05-10T11:53:25.841Z,93.72
2017-05-10T11:54:38.630Z,92.47
2017-05-10T11:55:50.933Z,92.85
2017-05-10T11:57:03.736Z,93.15
2017-05-10T11:58:16.037Z,91.99
2017-05-10T11:59:28.825Z,91.51
2017-05-10T12:00:41.608Z,91.6
2017-05-10T12:01:53.431Z,91.46
2017-05-10T12:03:06.368Z,91.75
2017-05-10T12:04:19.168Z,90.83
2017-05-10T12:05:31.486Z,90.5
2017-05-10T12:11:47.765Z,89.34
2017-05-10T12:13:00.560Z,89.24
2017-05-10T12:14:13.347Z,89.05
2017-05-10T12:15:25.181Z,89.53
2017-05-10T12:16:37.968Z,88.76
2017-05-10T12:17:50.759Z,89.53
2017-05-10T12:19:03.565Z,88.76
2017-05-10T12:20:16.398Z,89.43
2017-05-10T12:21:28.708Z,88.95
2017-05-10T12:22:41.492Z,89.72
2017-05-10T12:23:54.292Z,89.63
2017-05-10T12:25:07.096Z,89.24
2017-05-10T12:26:19.402Z,88.85
2017-05-10T12:27:31.701Z,88.81
2017-05-10T12:28:44.689Z,89.43
2017-05-10T12:29:57.484Z,88.95
2017-05-10T12:31:10.282Z,89.05
2017-05-10T12:32:23.073Z,88.95
2017-05-10T12:33:35.382Z,89.34
2017-05-10T12:34:47.699Z,88.95
2017-05-10T12:36:00.501Z,89.05
2017-05-10T12:37:13.295Z,89.43
2017-05-10T12:38:24.633Z,89.24
2017-05-10T12:39:37.422Z,89.82
2017-05-10T12:40:49.738Z,89.72
2017-05-10T12:42:02.523Z,89.63
2017-05-10T12:43:14.837Z,89.63
2017-05-10T12:44:27.349Z,89.63
2017-05-10T12:45:40.143Z,89.53
2017-05-10T12:46:52.461Z,89.92
2017-05-10T12:48:05.254Z,89.77
2017-05-10T12:49:18.074Z,89.53
2017-05-10T12:50:30.880Z,89.53
2017-05-10T12:51:43.193Z,90.2
2017-05-10T12:52:55.502Z,89.53
2017-05-10T12:54:07.809Z,89.72
2017-05-10T12:55:20.118Z,90.11
2017-05-10T12:56:32.928Z,89.72
2017-05-10T12:57:45.726Z,89.53
2017-05-10T12:58:58.518Z,90.4
2017-05-10T13:00:10.821Z,90.3
2017-05-10T13:01:23.435Z,90.59
2017-05-10T13:02:36.239Z,90.88
2017-05-10T13:03:49.025Z,90.5
2017-05-10T13:05:01.344Z,91.27
2017-05-10T13:06:28.211Z,91.36
2017-05-10T13:07:41.010Z,90.59
2017-05-10T13:08:53.801Z,90.78
2017-05-10T13:10:06.590Z,91.55
2017-05-10T13:11:19.437Z,91.75
2017-05-10T13:12:31.749Z,91.65
2017-05-10T13:13:44.553Z,91.84
2017-05-10T13:14:57.346Z,91.94
2017-05-10T13:16:10.134Z,91.75
2017-05-10T13:17:23.157Z,91.75
2017-05-10T13:18:35.484Z,91.65
2017-05-10T13:19:47.785Z,90.78
2017-05-10T13:21:00.576Z,91.27
2017-05-10T13:22:13.364Z,90.97
2017-05-10T13:23:25.674Z,90.3
2017-05-10T13:24:37.978Z,90.3
2017-05-10T13:25:50.762Z,90.4
2017-05-10T13:27:03.556Z,90.88
2017-05-10T13:28:16.496Z,91.65
2017-05-10T13:29:29.277Z,91.55
2017-05-10T13:30:41.574Z,90.5
2017-05-10T13:31:54.357Z,90.97
2017-05-10T13:33:07.191Z,91.17
2017-05-10T13:34:19.499Z,90.88
2017-05-10T13:35:32.294Z,91.6
2017-05-10T13:36:45.090Z,90.34
2017-05-10T13:37:57.888Z,89.86
2017-05-10T13:39:10.887Z,89.77
2017-05-10T13:40:23.674Z,89.58
2017-05-10T13:41:36.459Z,89.43
2017-05-10T13:42:49.293Z,88.46
2017-05-10T13:44:01.605Z,87.4
2017-05-10T13:45:14.406Z,86.96
2017-05-10T13:46:27.197Z,86.48
2017-05-10T13:47:39.507Z,85.71
2017-05-10T13:48:52.304Z,85.33
2017-05-10T13:50:04.618Z,85.42
2017-05-10T13:51:16.925Z,84.17
2017-05-10T13:52:29.733Z,84.11
2017-05-10T13:53:42.541Z,84.65
2017-05-10T13:54:55.643Z,83.83
2017-05-10T13:56:08.440Z,81.32
2017-05-10T13:57:20.754Z,79.97
2017-05-10T13:58:33.575Z,79.1
2017-05-10T13:59:46.378Z,78.71
2017-05-10T14:00:59.275Z,79.62
2017-05-10T14:02:11.106Z,79.52
2017-05-10T14:03:23.924Z,79.52
2017-05-10T14:04:36.240Z,79.04
2017-05-10T14:05:48.856Z,79.43
2017-05-10T14:07:01.683Z,78.85
2017-05-10T14:08:14.484Z,78.27
2017-05-10T14:09:26.803Z,79.33
2017-05-10T14:10:39.602Z,79.33
2017-05-10T14:11:52.108Z,79.04
2017-05-10T14:13:04.901Z,79.14
2017-05-10T14:14:16.730Z,79.81
2017-05-10T14:15:29.034Z,79.62
2017-05-10T14:16:41.821Z,79.04
2017-05-10T14:17:54.645Z,79.14
2017-05-10T14:19:07.428Z,79.24
2017-05-10T14:20:20.214Z,79.43
2017-05-10T14:21:33.005Z,79.91
2017-05-10T14:22:45.309Z,80
2017-05-10T14:23:57.610Z,80.39
2017-05-10T14:25:09.918Z,80.87
2017-05-10T14:26:22.704Z,80.78
2017-05-10T14:27:35.039Z,80.39
2017-05-10T14:28:47.823Z,80.49
2017-05-10T14:30:00.607Z,80.78
2017-05-10T14:31:13.392Z,80.3
2017-05-10T14:32:26.192Z,80.39
2017-05-10T14:33:38.984Z,81.26
2017-05-10T14:34:51.283Z,81.16
2017-05-10T14:36:04.111Z,81.45
2017-05-10T14:37:16.416Z,81.55
2017-05-10T14:38:29.202Z,81.55
2017-05-10T14:39:41.994Z,81.55
2017-05-10T14:40:54.301Z,81.07
2017-05-10T14:42:07.093Z,81.45
2017-05-10T14:43:19.879Z,81.26
2017-05-10T14:44:32.972Z,81.55
2017-05-10T14:45:45.276Z,82.13
2017-05-10T14:46:57.593Z,81.65
2017-05-10T14:48:09.893Z,81.55
2017-05-10T14:49:22.677Z,82.03
2017-05-10T14:50:35.459Z,81.74
2017-05-10T14:51:47.769Z,81.65
2017-05-10T14:53:00.560Z,82.13
2017-05-10T14:54:13.348Z,81.65
2017-05-10T14:55:26.188Z,82.23
2017-05-10T14:56:38.975Z,83.09
2017-05-10T14:57:51.290Z,82.09
2017-05-10T14:59:04.079Z,82.67
2017-05-10T15:00:17.167Z,83.05
2017-05-10T15:01:29.970Z,83.15
2017-05-10T15:02:42.756Z,82.86
2017-05-10T15:03:55.548Z,84.01
2017-05-10T15:05:07.848Z,83.4
2017-05-10T15:06:20.151Z,83.98
2017-05-10T15:07:32.937Z,83.98
2017-05-10T15:08:45.723Z,84.27
2017-05-10T15:09:58.506Z,84.55
2017-05-10T15:11:11.493Z,84.94
2017-05-10T15:12:24.276Z,85.23
2017-05-10T15:13:37.057Z,85.13
2017-05-10T15:14:48.872Z,84.84
2017-05-10T15:16:01.179Z,85.23
2017-05-10T15:17:13.682Z,85.33
2017-05-10T15:18:25.985Z,85.13
2017-05-10T15:19:38.765Z,85.42
2017-05-10T15:20:51.551Z,85.42
2017-05-10T15:22:04.332Z,85.81
2017-05-10T15:23:16.633Z,86.19
2017-05-10T15:24:28.940Z,86
2017-05-10T15:25:41.724Z,85.71
2017-05-10T15:26:54.506Z,84.94
2017-05-10T15:28:07.489Z,84.75
2017-05-10T15:29:20.277Z,84.59
2017-05-10T15:30:33.057Z,83.53
2017-05-10T15:31:45.364Z,81.51
2017-05-10T15:32:57.668Z,81.8
2017-05-10T15:34:10.448Z,82.38
2017-05-10T15:35:23.235Z,82.09
2017-05-10T15:36:36.022Z,81.51
2017-05-10T15:37:48.805Z,81.51
2017-05-10T15:39:01.588Z,81.55
2017-05-10T15:40:14.377Z,81.6
2017-05-10T15:41:27.211Z,81.12
2017-05-10T15:42:40.003Z,81.32
2017-05-10T15:43:52.309Z,81.7